Garfield, KY (40140)

08:10 PM CDT die 28o August, anno 2014 (GMT -0500)
Old Weldon | Change Station
CLOSE
Current Station
Personal Weather Stations
Location: Brandenburg, KY
Elevation: 636 ft
Nearby Weather Stations

Elev 636 ft 37.97 °N, 86.13 °W | Updated 13 seconds ago

Serena
Serena
78.3 °F
Feels Like 81 °F
N
0.0
Ventus Variabilis Ventus from Aquilo
Gusts 0.0 mph

Hodie
High -- | Low -- °F
--% Chance of Precip.
Yesterday
High -- | Low -- °F
Precip. -- in
6:11 AM 7:20 PM
Waxing Crescent, 11% visible
Pressio 30.01 in
Visibilitas 10.0 milia passuum
Clouds Serena
Index Caloris 81 °F
Frigus in quo Ros apparet 75 °F
Umor 89%
Rainfall 0.00 in
Snow Depth Not available.
UV 0 out of 12
Pollen 11.00 out of 12
Ozone Good
PM2.5 Moderate
Flu Activity Not available.
METAR KFTK 290058Z AUTO 07004KT 10SM CLR 27/22 A3002 RMK AO2 RAB0023E0024DZB0024E0033 SLP161 P0000 T02720223 $

More Conditions Fewer Conditions

Pressio 30.01 in
Visibilitas 10.0 milia passuum
Clouds Serena
Index Caloris 81 °F
Frigus in quo Ros apparet 75 °F
Umor 89%
Rainfall 0.00 in
Snow Depth Not available.
UV 0 out of 12
Pollen 11.00 out of 12
Ozone Good
PM2.5 Moderate
Flu Activity Not available.
METAR KFTK 290058Z AUTO 07004KT 10SM CLR 27/22 A3002 RMK AO2 RAB0023E0024DZB0024E0033 SLP161 P0000 T02720223 $

More Conditions Fewer Conditions

10-Day Weather Forecast

Almanac

Astronomy

Aug. 28, 2014 Rise Set
Actual Time 6:11 AM CDT 7:20 PM CDT
Civil Twilight 5:44 AM CDT 7:47 PM CDT
Nautical Twilight 5:12 AM CDT 8:19 PM CDT
Astronomical Twilight 4:38 AM CDT 8:53 PM CDT
Moon 9:00 AM CDT (8/28) 8:48 PM CDT (8/28)
Length Of Visible Light 14h 02m
Length of Day
13h 08m
Tomorrow will be 2m 18s shorter.
Waxing Crescent, 11% of the Moon is Illuminated
Hodie
Waxing Crescent
Sep 2
First Quarter
Sep 8
Full
Sep 15
Last Quarter
Sep 24
New

Today's Extremes

State Highs State Lows

Community

WunderPhotos

Upload Photos

1,748,126 photos uploaded!

Nearby

Air Quality

  Air Quality AQ Index Pollutant
Yesterday Good
PM10
Yesterday Good
OZONE
Current Moderate
PM2.5
Current Good
OZONE
Die Jovis Moderate
PM2.5
Die Jovis Good
OZONE
Die Veneris Moderate
PM2.5
Die Veneris Moderate
OZONE

Snow Depth

Station Depth Elevation
No new snow has been reported.

Earthquake Activity

City Distance Mag. Time & Date
No recent earthquake activity has been reported nearby.
Minimum magnitude displayed is 2.5.

Coastal Water Temperatures

Locus Calor
No Stations Reporting

Nearby Weather Stations